sensor_id;sensor_type;location;lat;lon;timestamp;P1;durP1;ratioP1;P2;durP2;ratioP2
69981;SDS011;57319;56.274;43.980;2022-12-08T00:00:10;7.43;;;4.20;;
69981;SDS011;57319;56.274;43.980;2022-12-08T00:02:36;10.38;;;5.57;;
69981;SDS011;57319;56.274;43.980;2022-12-08T00:05:02;10.43;;;5.43;;
69981;SDS011;57319;56.274;43.980;2022-12-08T00:07:46;7.22;;;4.75;;
69981;SDS011;57319;56.274;43.980;2022-12-08T00:10:30;6.60;;;3.78;;
69981;SDS011;57319;56.274;43.980;2022-12-08T00:12:56;9.88;;;5.43;;
69981;SDS011;57319;56.274;43.980;2022-12-08T00:15:22;15.25;;;5.43;;
69981;SDS011;57319;56.274;43.980;2022-12-08T00:17:47;12.35;;;6.05;;
69981;SDS011;57319;56.274;43.980;2022-12-08T00:20:13;12.20;;;5.32;;
69981;SDS011;57319;56.274;43.980;2022-12-08T00:22:38;7.18;;;4.88;;
69981;SDS011;57319;56.274;43.980;2022-12-08T00:25:04;13.07;;;6.57;;
69981;SDS011;57319;56.274;43.980;2022-12-08T00:27:30;10.02;;;5.80;;
69981;SDS011;57319;56.274;43.980;2022-12-08T00:29:56;8.80;;;4.70;;
69981;SDS011;57319;56.274;43.980;2022-12-08T00:32:21;6.88;;;4.53;;
69981;SDS011;57319;56.274;43.980;2022-12-08T00:34:47;8.20;;;5.20;;
69981;SDS011;57319;56.274;43.980;2022-12-08T00:37:13;11.13;;;5.60;;
69981;SDS011;57319;56.274;43.980;2022-12-08T00:39:38;9.68;;;5.80;;
69981;SDS011;57319;56.274;43.980;2022-12-08T00:42:04;11.45;;;5.20;;
69981;SDS011;57319;56.274;43.980;2022-12-08T00:44:42;7.80;;;4.88;;
69981;SDS011;57319;56.274;43.980;2022-12-08T00:47:09;7.90;;;4.72;;
69981;SDS011;57319;56.274;43.980;2022-12-08T00:49:35;14.52;;;6.00;;
69981;SDS011;57319;56.274;43.980;2022-12-08T00:52:01;9.48;;;6.05;;
69981;SDS011;57319;56.274;43.980;2022-12-08T00:54:27;9.27;;;5.28;;
69981;SDS011;57319;56.274;43.980;2022-12-08T00:56:53;11.30;;;6.22;;
69981;SDS011;57319;56.274;43.980;2022-12-08T00:59:18;6.63;;;4.70;;
69981;SDS011;57319;56.274;43.980;2022-12-08T01:01:44;12.60;;;5.22;;
69981;SDS011;57319;56.274;43.980;2022-12-08T01:04:12;6.28;;;4.32;;
69981;SDS011;57319;56.274;43.980;2022-12-08T01:06:40;9.23;;;5.20;;
69981;SDS011;57319;56.274;43.980;2022-12-08T01:09:06;12.20;;;4.65;;
69981;SDS011;57319;56.274;43.980;2022-12-08T01:11:33;13.88;;;5.80;;
69981;SDS011;57319;56.274;43.980;2022-12-08T01:13:59;12.43;;;5.22;;
69981;SDS011;57319;56.274;43.980;2022-12-08T01:16:26;8.82;;;5.60;;
69981;SDS011;57319;56.274;43.980;2022-12-08T01:18:53;12.45;;;4.70;;
69981;SDS011;57319;56.274;43.980;2022-12-08T01:21:19;10.20;;;5.55;;
69981;SDS011;57319;56.274;43.980;2022-12-08T01:23:46;5.90;;;5.07;;
69981;SDS011;57319;56.274;43.980;2022-12-08T01:26:12;9.60;;;4.68;;
69981;SDS011;57319;56.274;43.980;2022-12-08T01:28:39;9.88;;;6.07;;
69981;SDS011;57319;56.274;43.980;2022-12-08T01:31:09;13.90;;;6.10;;
69981;SDS011;57319;56.274;43.980;2022-12-08T01:33:37;10.52;;;5.15;;
69981;SDS011;57319;56.274;43.980;2022-12-08T01:36:04;11.82;;;6.28;;
69981;SDS011;57319;56.274;43.980;2022-12-08T01:38:30;13.02;;;5.97;;
69981;SDS011;57319;56.274;43.980;2022-12-08T01:40:56;8.35;;;4.78;;
69981;SDS011;57319;56.274;43.980;2022-12-08T01:43:21;9.43;;;3.92;;
69981;SDS011;57319;56.274;43.980;2022-12-08T01:45:47;5.80;;;3.55;;
69981;SDS011;57319;56.274;43.980;2022-12-08T01:48:15;6.88;;;4.97;;
69981;SDS011;57319;56.274;43.980;2022-12-08T01:50:45;10.73;;;4.72;;
69981;SDS011;57319;56.274;43.980;2022-12-08T01:53:20;12.05;;;5.75;;
69981;SDS011;57319;56.274;43.980;2022-12-08T01:56:10;6.03;;;4.78;;
69981;SDS011;57319;56.274;43.980;2022-12-08T01:58:44;9.75;;;3.72;;
69981;SDS011;57319;56.274;43.980;2022-12-08T02:01:13;4.70;;;2.97;;
69981;SDS011;57319;56.274;43.980;2022-12-08T02:03:44;7.63;;;5.45;;
69981;SDS011;57319;56.274;43.980;2022-12-08T02:06:21;11.18;;;4.15;;
69981;SDS011;57319;56.274;43.980;2022-12-08T02:08:46;8.05;;;4.82;;
69981;SDS011;57319;56.274;43.980;2022-12-08T02:11:14;6.63;;;4.20;;
69981;SDS011;57319;56.274;43.980;2022-12-08T02:13:40;11.40;;;4.38;;
69981;SDS011;57319;56.274;43.980;2022-12-08T02:16:17;7.45;;;4.78;;
69981;SDS011;57319;56.274;43.980;2022-12-08T02:21:54;9.90;;;4.25;;
69981;SDS011;57319;56.274;43.980;2022-12-08T02:27:27;8.98;;;4.10;;
69981;SDS011;57319;56.274;43.980;2022-12-08T02:30:10;7.85;;;3.47;;
69981;SDS011;57319;56.274;43.980;2022-12-08T02:41:30;5.13;;;3.33;;
69981;SDS011;57319;56.274;43.980;2022-12-08T02:43:52;9.90;;;4.90;;
69981;SDS011;57319;56.274;43.980;2022-12-08T02:46:31;6.80;;;3.67;;
69981;SDS011;57319;56.274;43.980;2022-12-08T02:49:10;6.50;;;3.78;;
69981;SDS011;57319;56.274;43.980;2022-12-08T02:51:39;8.73;;;5.00;;
69981;SDS011;57319;56.274;43.980;2022-12-08T02:54:05;11.73;;;4.28;;
69981;SDS011;57319;56.274;43.980;2022-12-08T02:56:39;8.93;;;5.53;;
69981;SDS011;57319;56.274;43.980;2022-12-08T03:01:57;9.05;;;4.38;;
69981;SDS011;57319;56.274;43.980;2022-12-08T03:10:36;18.05;;;3.85;;
69981;SDS011;57319;56.274;43.980;2022-12-08T03:13:13;8.85;;;4.10;;
69981;SDS011;57319;56.274;43.980;2022-12-08T03:15:42;7.18;;;4.40;;
69981;SDS011;57319;56.274;43.980;2022-12-08T03:18:12;5.00;;;2.85;;
69981;SDS011;57319;56.274;43.980;2022-12-08T03:20:41;6.63;;;4.25;;
69981;SDS011;57319;56.274;43.980;2022-12-08T03:23:09;13.85;;;4.43;;
69981;SDS011;57319;56.274;43.980;2022-12-08T03:25:40;7.28;;;3.65;;
69981;SDS011;57319;56.274;43.980;2022-12-08T03:28:11;5.07;;;4.03;;
69981;SDS011;57319;56.274;43.980;2022-12-08T03:30:38;10.00;;;4.10;;
69981;SDS011;57319;56.274;43.980;2022-12-08T03:33:15;6.72;;;4.13;;
69981;SDS011;57319;56.274;43.980;2022-12-08T03:35:46;5.00;;;4.55;;
69981;SDS011;57319;56.274;43.980;2022-12-08T03:38:14;13.95;;;5.32;;
69981;SDS011;57319;56.274;43.980;2022-12-08T03:40:41;9.63;;;4.80;;
69981;SDS011;57319;56.274;43.980;2022-12-08T03:43:07;5.45;;;4.13;;
69981;SDS011;57319;56.274;43.980;2022-12-08T03:45:32;8.07;;;4.10;;
69981;SDS011;57319;56.274;43.980;2022-12-08T03:47:58;6.25;;;4.65;;
69981;SDS011;57319;56.274;43.980;2022-12-08T03:50:24;13.75;;;4.57;;
69981;SDS011;57319;56.274;43.980;2022-12-08T03:52:50;4.07;;;2.92;;
69981;SDS011;57319;56.274;43.980;2022-12-08T03:55:15;11.63;;;4.47;;
69981;SDS011;57319;56.274;43.980;2022-12-08T03:57:41;6.82;;;3.65;;
69981;SDS011;57319;56.274;43.980;2022-12-08T04:00:08;11.20;;;5.63;;
69981;SDS011;57319;56.274;43.980;2022-12-08T04:02:38;9.88;;;3.78;;
69981;SDS011;57319;56.274;43.980;2022-12-08T04:05:04;9.43;;;4.28;;
69981;SDS011;57319;56.274;43.980;2022-12-08T04:07:29;8.32;;;4.57;;
69981;SDS011;57319;56.274;43.980;2022-12-08T04:09:55;6.55;;;4.45;;
69981;SDS011;57319;56.274;43.980;2022-12-08T04:12:20;4.00;;;3.67;;
69981;SDS011;57319;56.274;43.980;2022-12-08T04:14:46;7.13;;;4.22;;
69981;SDS011;57319;56.274;43.980;2022-12-08T04:17:12;11.57;;;4.47;;
69981;SDS011;57319;56.274;43.980;2022-12-08T04:19:37;8.68;;;4.40;;
69981;SDS011;57319;56.274;43.980;2022-12-08T04:22:05;4.63;;;3.38;;
69981;SDS011;57319;56.274;43.980;2022-12-08T04:24:31;4.72;;;3.92;;
69981;SDS011;57319;56.274;43.980;2022-12-08T04:26:56;12.55;;;4.07;;
69981;SDS011;57319;56.274;43.980;2022-12-08T04:29:22;6.97;;;3.97;;
69981;SDS011;57319;56.274;43.980;2022-12-08T04:31:48;3.80;;;3.38;;
69981;SDS011;57319;56.274;43.980;2022-12-08T04:34:13;5.57;;;3.75;;
69981;SDS011;57319;56.274;43.980;2022-12-08T04:36:39;6.15;;;4.05;;
69981;SDS011;57319;56.274;43.980;2022-12-08T04:39:05;8.80;;;4.22;;
69981;SDS011;57319;56.274;43.980;2022-12-08T04:41:31;9.75;;;4.22;;
69981;SDS011;57319;56.274;43.980;2022-12-08T04:43:56;6.85;;;4.18;;
69981;SDS011;57319;56.274;43.980;2022-12-08T04:46:22;11.27;;;4.13;;
69981;SDS011;57319;56.274;43.980;2022-12-08T04:48:47;13.38;;;3.95;;
69981;SDS011;57319;56.274;43.980;2022-12-08T04:51:16;6.60;;;4.10;;
69981;SDS011;57319;56.274;43.980;2022-12-08T04:53:43;5.28;;;3.45;;
69981;SDS011;57319;56.274;43.980;2022-12-08T04:56:10;7.05;;;4.28;;
69981;SDS011;57319;56.274;43.980;2022-12-08T04:58:39;8.88;;;4.22;;
69981;SDS011;57319;56.274;43.980;2022-12-08T05:01:05;10.60;;;5.00;;
69981;SDS011;57319;56.274;43.980;2022-12-08T05:03:31;11.00;;;3.78;;
69981;SDS011;57319;56.274;43.980;2022-12-08T05:06:00;4.80;;;3.47;;
69981;SDS011;57319;56.274;43.980;2022-12-08T05:08:27;5.38;;;3.72;;
69981;SDS011;57319;56.274;43.980;2022-12-08T05:10:53;2.60;;;2.40;;
69981;SDS011;57319;56.274;43.980;2022-12-08T05:13:26;6.22;;;3.50;;
69981;SDS011;57319;56.274;43.980;2022-12-08T05:15:51;5.88;;;3.70;;
69981;SDS011;57319;56.274;43.980;2022-12-08T05:18:17;13.18;;;4.63;;
69981;SDS011;57319;56.274;43.980;2022-12-08T05:20:42;5.80;;;3.95;;
69981;SDS011;57319;56.274;43.980;2022-12-08T05:23:08;5.15;;;4.22;;
69981;SDS011;57319;56.274;43.980;2022-12-08T05:25:34;7.75;;;4.10;;
69981;SDS011;57319;56.274;43.980;2022-12-08T05:27:59;9.02;;;5.00;;
69981;SDS011;57319;56.274;43.980;2022-12-08T05:30:25;10.38;;;3.85;;
69981;SDS011;57319;56.274;43.980;2022-12-08T05:32:51;5.28;;;3.22;;
69981;SDS011;57319;56.274;43.980;2022-12-08T05:35:16;6.32;;;4.00;;
69981;SDS011;57319;56.274;43.980;2022-12-08T05:37:42;7.80;;;2.92;;
69981;SDS011;57319;56.274;43.980;2022-12-08T05:40:08;4.18;;;3.15;;
69981;SDS011;57319;56.274;43.980;2022-12-08T05:42:34;8.82;;;3.83;;
69981;SDS011;57319;56.274;43.980;2022-12-08T05:44:59;2.83;;;2.63;;
69981;SDS011;57319;56.274;43.980;2022-12-08T05:47:25;3.58;;;3.25;;
69981;SDS011;57319;56.274;43.980;2022-12-08T05:49:51;12.70;;;5.05;;
69981;SDS011;57319;56.274;43.980;2022-12-08T05:52:16;6.10;;;4.25;;
69981;SDS011;57319;56.274;43.980;2022-12-08T05:54:42;8.43;;;3.85;;
69981;SDS011;57319;56.274;43.980;2022-12-08T05:57:08;7.22;;;3.42;;
69981;SDS011;57319;56.274;43.980;2022-12-08T05:59:33;7.70;;;3.28;;
69981;SDS011;57319;56.274;43.980;2022-12-08T06:01:59;7.47;;;4.32;;
69981;SDS011;57319;56.274;43.980;2022-12-08T06:04:25;7.72;;;3.38;;
69981;SDS011;57319;56.274;43.980;2022-12-08T06:06:50;5.72;;;2.88;;
69981;SDS011;57319;56.274;43.980;2022-12-08T06:09:16;3.83;;;3.10;;
69981;SDS011;57319;56.274;43.980;2022-12-08T06:11:42;12.25;;;4.47;;
69981;SDS011;57319;56.274;43.980;2022-12-08T06:14:10;4.93;;;3.20;;
69981;SDS011;57319;56.274;43.980;2022-12-08T06:16:37;3.83;;;3.10;;
69981;SDS011;57319;56.274;43.980;2022-12-08T06:19:02;6.30;;;4.18;;
69981;SDS011;57319;56.274;43.980;2022-12-08T06:21:28;21.00;;;3.25;;
69981;SDS011;57319;56.274;43.980;2022-12-08T06:23:54;3.40;;;3.20;;
69981;SDS011;57319;56.274;43.980;2022-12-08T06:26:21;10.35;;;3.17;;
69981;SDS011;57319;56.274;43.980;2022-12-08T06:28:47;12.98;;;4.45;;
69981;SDS011;57319;56.274;43.980;2022-12-08T06:31:17;7.38;;;3.35;;
69981;SDS011;57319;56.274;43.980;2022-12-08T06:33:48;3.88;;;3.50;;
69981;SDS011;57319;56.274;43.980;2022-12-08T06:36:15;11.23;;;4.13;;
69981;SDS011;57319;56.274;43.980;2022-12-08T06:38:42;2.53;;;2.33;;
69981;SDS011;57319;56.274;43.980;2022-12-08T06:41:07;8.05;;;2.50;;
69981;SDS011;57319;56.274;43.980;2022-12-08T06:43:33;14.05;;;3.80;;
69981;SDS011;57319;56.274;43.980;2022-12-08T06:46:03;7.32;;;3.17;;
69981;SDS011;57319;56.274;43.980;2022-12-08T06:48:31;7.07;;;4.43;;
69981;SDS011;57319;56.274;43.980;2022-12-08T06:50:56;7.03;;;3.15;;
69981;SDS011;57319;56.274;43.980;2022-12-08T06:53:22;6.40;;;3.63;;
69981;SDS011;57319;56.274;43.980;2022-12-08T06:55:51;3.53;;;2.88;;
69981;SDS011;57319;56.274;43.980;2022-12-08T06:58:17;3.55;;;3.00;;
69981;SDS011;57319;56.274;43.980;2022-12-08T07:00:43;6.78;;;3.33;;
69981;SDS011;57319;56.274;43.980;2022-12-08T07:03:09;12.07;;;2.88;;
69981;SDS011;57319;56.274;43.980;2022-12-08T07:05:36;6.85;;;3.42;;
69981;SDS011;57319;56.274;43.980;2022-12-08T07:08:03;4.43;;;4.00;;
69981;SDS011;57319;56.274;43.980;2022-12-08T07:10:29;4.88;;;3.60;;
69981;SDS011;57319;56.274;43.980;2022-12-08T07:12:55;6.53;;;3.95;;
69981;SDS011;57319;56.274;43.980;2022-12-08T07:15:21;8.43;;;4.38;;
69981;SDS011;57319;56.274;43.980;2022-12-08T07:17:46;2.85;;;2.42;;
69981;SDS011;57319;56.274;43.980;2022-12-08T07:20:13;5.32;;;3.30;;
69981;SDS011;57319;56.274;43.980;2022-12-08T07:22:39;3.15;;;2.85;;
69981;SDS011;57319;56.274;43.980;2022-12-08T07:25:05;3.00;;;2.72;;
69981;SDS011;57319;56.274;43.980;2022-12-08T07:27:31;3.50;;;3.20;;
69981;SDS011;57319;56.274;43.980;2022-12-08T07:29:56;3.38;;;2.88;;
69981;SDS011;57319;56.274;43.980;2022-12-08T07:32:22;3.10;;;2.90;;
69981;SDS011;57319;56.274;43.980;2022-12-08T07:34:48;3.97;;;3.15;;
69981;SDS011;57319;56.274;43.980;2022-12-08T07:37:14;7.07;;;3.00;;
69981;SDS011;57319;56.274;43.980;2022-12-08T07:39:41;5.20;;;2.95;;
69981;SDS011;57319;56.274;43.980;2022-12-08T07:42:07;5.80;;;2.97;;
69981;SDS011;57319;56.274;43.980;2022-12-08T07:44:33;3.38;;;2.63;;
69981;SDS011;57319;56.274;43.980;2022-12-08T07:46:58;4.32;;;2.25;;
69981;SDS011;57319;56.274;43.980;2022-12-08T07:49:24;7.20;;;3.65;;
69981;SDS011;57319;56.274;43.980;2022-12-08T07:51:50;6.88;;;3.17;;
69981;SDS011;57319;56.274;43.980;2022-12-08T07:54:15;2.45;;;2.22;;
69981;SDS011;57319;56.274;43.980;2022-12-08T07:56:41;11.55;;;3.65;;
69981;SDS011;57319;56.274;43.980;2022-12-08T07:59:06;5.30;;;3.40;;
69981;SDS011;57319;56.274;43.980;2022-12-08T08:01:32;4.35;;;2.70;;
69981;SDS011;57319;56.274;43.980;2022-12-08T08:03:59;5.60;;;2.92;;
69981;SDS011;57319;56.274;43.980;2022-12-08T08:06:26;6.60;;;3.25;;
69981;SDS011;57319;56.274;43.980;2022-12-08T08:08:52;3.35;;;2.95;;
69981;SDS011;57319;56.274;43.980;2022-12-08T08:11:19;7.07;;;3.33;;
69981;SDS011;57319;56.274;43.980;2022-12-08T08:13:44;4.50;;;2.65;;
69981;SDS011;57319;56.274;43.980;2022-12-08T08:16:10;4.80;;;2.92;;
69981;SDS011;57319;56.274;43.980;2022-12-08T08:18:37;2.72;;;2.50;;
69981;SDS011;57319;56.274;43.980;2022-12-08T08:21:04;3.85;;;2.60;;
69981;SDS011;57319;56.274;43.980;2022-12-08T08:23:30;3.65;;;2.22;;
69981;SDS011;57319;56.274;43.980;2022-12-08T08:25:59;3.13;;;2.83;;
69981;SDS011;57319;56.274;43.980;2022-12-08T08:28:26;10.57;;;3.35;;
69981;SDS011;57319;56.274;43.980;2022-12-08T08:30:53;3.85;;;2.55;;
69981;SDS011;57319;56.274;43.980;2022-12-08T08:33:19;4.55;;;2.50;;
69981;SDS011;57319;56.274;43.980;2022-12-08T08:35:44;3.38;;;3.05;;
69981;SDS011;57319;56.274;43.980;2022-12-08T08:38:10;4.55;;;2.65;;
69981;SDS011;57319;56.274;43.980;2022-12-08T08:40:35;8.07;;;3.80;;
69981;SDS011;57319;56.274;43.980;2022-12-08T08:43:01;6.95;;;3.28;;
69981;SDS011;57319;56.274;43.980;2022-12-08T08:45:30;4.95;;;2.72;;
69981;SDS011;57319;56.274;43.980;2022-12-08T08:47:57;2.70;;;2.50;;
69981;SDS011;57319;56.274;43.980;2022-12-08T08:50:23;4.78;;;2.78;;
69981;SDS011;57319;56.274;43.980;2022-12-08T08:52:49;3.47;;;2.80;;
69981;SDS011;57319;56.274;43.980;2022-12-08T08:55:15;3.45;;;3.05;;
69981;SDS011;57319;56.274;43.980;2022-12-08T08:57:41;5.18;;;3.05;;
69981;SDS011;57319;56.274;43.980;2022-12-08T09:00:07;3.47;;;2.58;;
69981;SDS011;57319;56.274;43.980;2022-12-08T09:02:36;6.18;;;3.08;;
69981;SDS011;57319;56.274;43.980;2022-12-08T09:05:02;9.90;;;3.30;;
69981;SDS011;57319;56.274;43.980;2022-12-08T09:07:29;5.22;;;2.53;;
69981;SDS011;57319;56.274;43.980;2022-12-08T09:09:55;3.15;;;2.95;;
69981;SDS011;57319;56.274;43.980;2022-12-08T09:12:22;11.32;;;3.30;;
69981;SDS011;57319;56.274;43.980;2022-12-08T09:14:48;4.03;;;2.75;;
69981;SDS011;57319;56.274;43.980;2022-12-08T09:17:13;3.67;;;2.70;;
69981;SDS011;57319;56.274;43.980;2022-12-08T09:19:39;6.72;;;3.10;;
69981;SDS011;57319;56.274;43.980;2022-12-08T09:22:05;4.97;;;3.25;;
69981;SDS011;57319;56.274;43.980;2022-12-08T09:24:31;2.92;;;2.45;;
69981;SDS011;57319;56.274;43.980;2022-12-08T09:26:57;5.25;;;3.40;;
69981;SDS011;57319;56.274;43.980;2022-12-08T09:29:23;3.10;;;2.88;;
69981;SDS011;57319;56.274;43.980;2022-12-08T09:31:48;7.03;;;4.07;;
69981;SDS011;57319;56.274;43.980;2022-12-08T09:34:14;4.00;;;2.78;;
69981;SDS011;57319;56.274;43.980;2022-12-08T09:36:40;2.70;;;2.50;;
69981;SDS011;57319;56.274;43.980;2022-12-08T09:39:05;7.47;;;3.45;;
69981;SDS011;57319;56.274;43.980;2022-12-08T09:41:52;3.15;;;2.90;;
69981;SDS011;57319;56.274;43.980;2022-12-08T09:44:30;2.55;;;2.35;;
69981;SDS011;57319;56.274;43.980;2022-12-08T09:49:51;6.22;;;3.03;;
69981;SDS011;57319;56.274;43.980;2022-12-08T09:52:24;2.75;;;2.55;;
69981;SDS011;57319;56.274;43.980;2022-12-08T09:54:58;6.28;;;3.38;;
69981;SDS011;57319;56.274;43.980;2022-12-08T09:57:28;2.70;;;2.50;;
69981;SDS011;57319;56.274;43.980;2022-12-08T10:00:00;2.55;;;2.42;;
69981;SDS011;57319;56.274;43.980;2022-12-08T10:04:56;4.75;;;2.15;;
69981;SDS011;57319;56.274;43.980;2022-12-08T10:07:28;2.92;;;2.70;;
69981;SDS011;57319;56.274;43.980;2022-12-08T10:17:47;7.57;;;2.83;;
69981;SDS011;57319;56.274;43.980;2022-12-08T10:20:18;5.57;;;2.60;;
69981;SDS011;57319;56.274;43.980;2022-12-08T10:26:18;3.78;;;2.95;;
69981;SDS011;57319;56.274;43.980;2022-12-08T10:28:29;6.45;;;3.53;;
69981;SDS011;57319;56.274;43.980;2022-12-08T10:30:57;5.28;;;2.33;;
69981;SDS011;57319;56.274;43.980;2022-12-08T10:33:22;3.17;;;2.63;;
69981;SDS011;57319;56.274;43.980;2022-12-08T10:35:55;3.80;;;2.92;;
69981;SDS011;57319;56.274;43.980;2022-12-08T10:40:59;4.75;;;2.17;;
69981;SDS011;57319;56.274;43.980;2022-12-08T10:43:30;2.78;;;2.58;;
69981;SDS011;57319;56.274;43.980;2022-12-08T10:46:07;5.78;;;3.30;;
69981;SDS011;57319;56.274;43.980;2022-12-08T10:53:58;10.10;;;2.97;;
69981;SDS011;57319;56.274;43.980;2022-12-08T10:56:26;2.70;;;2.40;;
69981;SDS011;57319;56.274;43.980;2022-12-08T10:59:13;3.05;;;2.17;;
69981;SDS011;57319;56.274;43.980;2022-12-08T11:01:39;4.13;;;2.38;;
69981;SDS011;57319;56.274;43.980;2022-12-08T11:04:10;12.43;;;3.65;;
69981;SDS011;57319;56.274;43.980;2022-12-08T11:06:40;4.55;;;2.60;;
69981;SDS011;57319;56.274;43.980;2022-12-08T11:11:48;3.83;;;3.47;;
69981;SDS011;57319;56.274;43.980;2022-12-08T11:17:01;3.05;;;2.75;;
69981;SDS011;57319;56.274;43.980;2022-12-08T11:19:30;3.80;;;2.35;;
69981;SDS011;57319;56.274;43.980;2022-12-08T11:21:55;2.53;;;2.10;;
69981;SDS011;57319;56.274;43.980;2022-12-08T11:29:31;2.15;;;2.03;;
69981;SDS011;57319;56.274;43.980;2022-12-08T11:31:58;4.28;;;2.72;;
69981;SDS011;57319;56.274;43.980;2022-12-08T11:37:42;2.78;;;2.58;;
69981;SDS011;57319;56.274;43.980;2022-12-08T11:40:16;6.65;;;2.25;;
69981;SDS011;57319;56.274;43.980;2022-12-08T11:43:07;8.65;;;3.22;;
69981;SDS011;57319;56.274;43.980;2022-12-08T11:45:36;2.45;;;2.22;;
69981;SDS011;57319;56.274;43.980;2022-12-08T11:48:09;7.30;;;3.47;;
69981;SDS011;57319;56.274;43.980;2022-12-08T11:50:44;7.03;;;2.88;;
69981;SDS011;57319;56.274;43.980;2022-12-08T11:53:33;5.07;;;3.33;;
69981;SDS011;57319;56.274;43.980;2022-12-08T11:56:26;2.90;;;2.70;;
69981;SDS011;57319;56.274;43.980;2022-12-08T12:02:24;5.20;;;3.25;;
69981;SDS011;57319;56.274;43.980;2022-12-08T12:05:33;2.72;;;2.20;;
69981;SDS011;57319;56.274;43.980;2022-12-08T12:09:08;5.35;;;2.53;;
69981;SDS011;57319;56.274;43.980;2022-12-08T12:15:01;7.68;;;2.42;;
69981;SDS011;57319;56.274;43.980;2022-12-08T12:21:06;4.68;;;2.90;;
69981;SDS011;57319;56.274;43.980;2022-12-08T12:24:00;6.00;;;2.67;;
69981;SDS011;57319;56.274;43.980;2022-12-08T12:26:33;3.92;;;2.85;;
69981;SDS011;57319;56.274;43.980;2022-12-08T12:29:18;6.32;;;3.28;;
69981;SDS011;57319;56.274;43.980;2022-12-08T12:32:05;3.38;;;3.08;;
69981;SDS011;57319;56.274;43.980;2022-12-08T12:34:57;4.85;;;2.97;;
69981;SDS011;57319;56.274;43.980;2022-12-08T12:37:34;4.72;;;2.78;;
69981;SDS011;57319;56.274;43.980;2022-12-08T12:40:21;4.18;;;2.17;;
69981;SDS011;57319;56.274;43.980;2022-12-08T12:45:42;4.15;;;3.55;;
69981;SDS011;57319;56.274;43.980;2022-12-08T12:48:22;8.20;;;2.30;;
69981;SDS011;57319;56.274;43.980;2022-12-08T12:51:01;2.75;;;2.65;;
69981;SDS011;57319;56.274;43.980;2022-12-08T12:54:27;4.85;;;3.55;;
69981;SDS011;57319;56.274;43.980;2022-12-08T12:57:22;6.47;;;3.33;;
69981;SDS011;57319;56.274;43.980;2022-12-08T13:00:33;5.13;;;2.20;;
69981;SDS011;57319;56.274;43.980;2022-12-08T13:03:14;9.05;;;3.05;;
69981;SDS011;57319;56.274;43.980;2022-12-08T13:06:00;4.20;;;2.95;;
69981;SDS011;57319;56.274;43.980;2022-12-08T13:08:40;7.28;;;3.08;;
69981;SDS011;57319;56.274;43.980;2022-12-08T13:11:50;3.13;;;2.92;;
69981;SDS011;57319;56.274;43.980;2022-12-08T13:14:48;3.63;;;3.25;;
69981;SDS011;57319;56.274;43.980;2022-12-08T13:17:35;6.85;;;2.92;;
69981;SDS011;57319;56.274;43.980;2022-12-08T13:20:22;4.15;;;3.17;;
69981;SDS011;57319;56.274;43.980;2022-12-08T13:23:00;3.35;;;3.00;;
69981;SDS011;57319;56.274;43.980;2022-12-08T13:26:17;2.97;;;2.67;;
69981;SDS011;57319;56.274;43.980;2022-12-08T13:34:42;4.35;;;3.55;;
69981;SDS011;57319;56.274;43.980;2022-12-08T13:37:21;3.15;;;2.78;;
69981;SDS011;57319;56.274;43.980;2022-12-08T13:40:53;7.25;;;3.20;;
69981;SDS011;57319;56.274;43.980;2022-12-08T13:45:49;5.53;;;3.60;;
69981;SDS011;57319;56.274;43.980;2022-12-08T13:48:27;5.28;;;3.47;;
69981;SDS011;57319;56.274;43.980;2022-12-08T13:51:09;3.67;;;2.37;;
69981;SDS011;57319;56.274;43.980;2022-12-08T13:53:41;7.07;;;3.17;;
69981;SDS011;57319;56.274;43.980;2022-12-08T13:56:13;5.38;;;4.00;;
69981;SDS011;57319;56.274;43.980;2022-12-08T13:58:40;5.65;;;3.42;;
69981;SDS011;57319;56.274;43.980;2022-12-08T14:01:07;6.00;;;2.92;;
69981;SDS011;57319;56.274;43.980;2022-12-08T14:03:46;4.80;;;2.50;;
69981;SDS011;57319;56.274;43.980;2022-12-08T14:09:02;3.28;;;2.78;;
69981;SDS011;57319;56.274;43.980;2022-12-08T14:11:35;18.05;;;3.95;;
69981;SDS011;57319;56.274;43.980;2022-12-08T14:14:04;4.60;;;3.08;;
69981;SDS011;57319;56.274;43.980;2022-12-08T14:16:41;5.82;;;3.20;;
69981;SDS011;57319;56.274;43.980;2022-12-08T14:19:31;8.00;;;4.10;;
69981;SDS011;57319;56.274;43.980;2022-12-08T14:24:26;7.22;;;4.22;;
69981;SDS011;57319;56.274;43.980;2022-12-08T14:26:55;6.18;;;3.40;;
69981;SDS011;57319;56.274;43.980;2022-12-08T14:29:44;6.75;;;4.13;;
69981;SDS011;57319;56.274;43.980;2022-12-08T14:32:30;5.45;;;3.20;;
69981;SDS011;57319;56.274;43.980;2022-12-08T14:37:32;5.03;;;3.30;;
69981;SDS011;57319;56.274;43.980;2022-12-08T14:45:33;7.45;;;3.83;;
69981;SDS011;57319;56.274;43.980;2022-12-08T14:50:54;9.52;;;3.67;;
69981;SDS011;57319;56.274;43.980;2022-12-08T14:53:23;4.75;;;3.03;;
69981;SDS011;57319;56.274;43.980;2022-12-08T14:55:49;4.78;;;3.50;;
69981;SDS011;57319;56.274;43.980;2022-12-08T14:58:19;7.80;;;4.35;;
69981;SDS011;57319;56.274;43.980;2022-12-08T15:00:51;4.60;;;3.92;;
69981;SDS011;57319;56.274;43.980;2022-12-08T15:03:21;7.50;;;3.33;;
69981;SDS011;57319;56.274;43.980;2022-12-08T15:05:51;7.78;;;4.32;;
69981;SDS011;57319;56.274;43.980;2022-12-08T15:08:20;4.78;;;3.67;;
69981;SDS011;57319;56.274;43.980;2022-12-08T15:10:46;6.40;;;4.10;;
69981;SDS011;57319;56.274;43.980;2022-12-08T15:13:47;9.00;;;4.05;;
69981;SDS011;57319;56.274;43.980;2022-12-08T15:16:29;4.50;;;3.63;;
69981;SDS011;57319;56.274;43.980;2022-12-08T15:21:29;12.15;;;3.60;;
69981;SDS011;57319;56.274;43.980;2022-12-08T15:24:00;4.53;;;2.75;;
69981;SDS011;57319;56.274;43.980;2022-12-08T15:26:26;10.75;;;3.80;;
69981;SDS011;57319;56.274;43.980;2022-12-08T15:28:53;9.30;;;4.10;;
69981;SDS011;57319;56.274;43.980;2022-12-08T15:31:19;7.03;;;3.92;;
69981;SDS011;57319;56.274;43.980;2022-12-08T15:33:45;5.20;;;3.80;;
69981;SDS011;57319;56.274;43.980;2022-12-08T15:36:11;4.82;;;3.85;;
69981;SDS011;57319;56.274;43.980;2022-12-08T15:38:37;8.13;;;3.40;;
69981;SDS011;57319;56.274;43.980;2022-12-08T15:41:02;8.65;;;3.65;;
69981;SDS011;57319;56.274;43.980;2022-12-08T15:43:29;5.57;;;3.35;;
69981;SDS011;57319;56.274;43.980;2022-12-08T15:45:56;11.60;;;4.25;;
69981;SDS011;57319;56.274;43.980;2022-12-08T15:48:22;6.47;;;3.88;;
69981;SDS011;57319;56.274;43.980;2022-12-08T15:50:51;3.22;;;2.60;;
69981;SDS011;57319;56.274;43.980;2022-12-08T15:53:17;3.03;;;2.72;;
69981;SDS011;57319;56.274;43.980;2022-12-08T15:55:43;15.43;;;3.55;;
69981;SDS011;57319;56.274;43.980;2022-12-08T15:58:20;5.20;;;2.97;;
69981;SDS011;57319;56.274;43.980;2022-12-08T16:00:47;4.30;;;3.08;;
69981;SDS011;57319;56.274;43.980;2022-12-08T16:03:18;6.97;;;3.38;;
69981;SDS011;57319;56.274;43.980;2022-12-08T16:05:54;7.53;;;3.13;;
69981;SDS011;57319;56.274;43.980;2022-12-08T16:08:21;8.70;;;3.78;;
69981;SDS011;57319;56.274;43.980;2022-12-08T16:10:47;10.35;;;3.72;;
69981;SDS011;57319;56.274;43.980;2022-12-08T16:13:16;4.40;;;3.97;;
69981;SDS011;57319;56.274;43.980;2022-12-08T16:16:02;5.95;;;4.07;;
69981;SDS011;57319;56.274;43.980;2022-12-08T16:18:31;5.13;;;3.80;;
69981;SDS011;57319;56.274;43.980;2022-12-08T16:21:02;5.85;;;4.07;;
69981;SDS011;57319;56.274;43.980;2022-12-08T16:23:28;7.32;;;4.22;;
69981;SDS011;57319;56.274;43.980;2022-12-08T16:25:54;6.18;;;4.35;;
69981;SDS011;57319;56.274;43.980;2022-12-08T16:28:20;6.15;;;4.25;;
69981;SDS011;57319;56.274;43.980;2022-12-08T16:30:46;7.10;;;4.78;;
69981;SDS011;57319;56.274;43.980;2022-12-08T16:33:12;5.85;;;3.80;;